Time;durP1;ratioP1;P1;durP2;ratioP2;P2;SDS_P1;SDS_P2;PMS_P1;PMS_P2;Temp;Humidity;BMP_temperature;BMP_pressure;BME280_temperature;BME280_humidity;BME280_pressure;Samples;Min_cycle;Max_cycle;Signal;HPM_P1;HPM_P2
2022/12/02 00:02:32;;;;;;;476.98;39.67;;;1.10;99.90;;;;;;5068941;28;20124;-68
2022/12/02 00:05:02;;;;;;;454.80;38.17;;;1.10;99.90;;;;;;5063366;28;20064;-68
2022/12/02 00:07:28;;;;;;;769.17;48.88;;;1.10;99.90;;;;;;5069986;28;20055;-70
2022/12/02 00:09:54;;;;;;;700.35;48.65;;;1.00;99.90;;;;;;5063723;28;20045;-69
2022/12/02 00:12:20;;;;;;;537.70;42.03;;;1.00;99.90;;;;;;5062667;28;20029;-68
2022/12/02 00:14:48;;;;;;;614.78;43.25;;;1.00;99.90;;;;;;5059154;28;20044;-68
2022/12/02 00:17:13;;;;;;;614.85;43.97;;;0.90;99.90;;;;;;5054504;28;20057;-70
2022/12/02 00:19:39;;;;;;;470.30;37.47;;;1.00;99.90;;;;;;5047156;28;20500;-68
2022/12/02 00:22:05;;;;;;;497.27;39.80;;;1.00;99.90;;;;;;5050781;28;20040;-68
2022/12/02 00:24:30;;;;;;;569.70;41.95;;;1.00;99.90;;;;;;5062666;28;20040;-69
2022/12/02 00:26:56;;;;;;;417.42;35.03;;;1.00;99.90;;;;;;5046905;28;20052;-68
2022/12/02 00:29:21;;;;;;;524.45;40.75;;;1.00;99.90;;;;;;5056728;28;20039;-68
2022/12/02 00:31:47;;;;;;;627.97;45.17;;;1.00;99.90;;;;;;5046295;28;20136;-69
2022/12/02 00:34:13;;;;;;;616.17;45.10;;;1.00;99.90;;;;;;5050538;28;20044;-67
2022/12/02 00:36:38;;;;;;;531.70;37.83;;;1.00;99.90;;;;;;5048676;28;20056;-69
2022/12/02 00:39:04;;;;;;;700.67;45.63;;;1.00;99.90;;;;;;5045069;28;20049;-66
2022/12/02 00:41:30;;;;;;;592.95;46.25;;;1.00;99.90;;;;;;5047023;28;20062;-68
2022/12/02 00:46:40;;;;;;;556.78;39.03;;;1.00;99.90;;;;;;5046496;28;20523;-68
2022/12/02 00:49:09;;;;;;;357.67;35.05;;;1.00;99.90;;;;;;5042460;28;20043;-68
2022/12/02 00:51:36;;;;;;;396.60;35.47;;;1.00;99.90;;;;;;5046219;28;20036;-67
2022/12/02 00:54:03;;;;;;;528.65;41.35;;;1.10;99.90;;;;;;5037409;28;20771;-69
2022/12/02 00:56:28;;;;;;;582.50;38.22;;;1.10;99.90;;;;;;5046406;28;20060;-68
2022/12/02 00:58:54;;;;;;;441.65;38.00;;;1.00;99.90;;;;;;5029573;28;20069;-68
2022/12/02 01:01:20;;;;;;;479.48;36.47;;;0.90;99.90;;;;;;5043710;28;20067;-71
2022/12/02 01:03:46;;;;;;;537.15;39.85;;;1.00;99.90;;;;;;5040599;28;20605;-70
2022/12/02 01:06:12;;;;;;;484.35;38.85;;;0.90;99.90;;;;;;5041235;28;20102;-69
2022/12/02 01:08:38;;;;;;;415.65;34.50;;;0.90;99.90;;;;;;5045116;28;20045;-67
2022/12/02 01:11:03;;;;;;;450.13;37.65;;;1.00;99.90;;;;;;5045498;28;20036;-68
2022/12/02 01:13:29;;;;;;;385.30;34.80;;;1.00;99.90;;;;;;5046371;28;20068;-69
2022/12/02 01:15:55;;;;;;;493.95;40.53;;;1.00;99.90;;;;;;5044887;28;20041;-67
2022/12/02 01:18:21;;;;;;;440.17;35.72;;;0.90;99.90;;;;;;5041984;28;20625;-71
2022/12/02 01:20:46;;;;;;;380.58;35.78;;;0.90;99.90;;;;;;5041010;28;20041;-68
2022/12/02 01:23:13;;;;;;;361.45;35.83;;;0.90;99.90;;;;;;5043492;28;20416;-67
2022/12/02 01:25:39;;;;;;;694.85;46.08;;;0.90;99.90;;;;;;5040530;28;20122;-68
2022/12/02 01:28:05;;;;;;;403.73;34.80;;;0.90;99.90;;;;;;5043844;28;20714;-69
2022/12/02 01:30:30;;;;;;;874.72;67.00;;;1.00;99.90;;;;;;5036276;28;20619;-67
2022/12/02 01:32:56;;;;;;;604.17;43.70;;;0.90;99.90;;;;;;5044461;28;20033;-68
2022/12/02 01:35:22;;;;;;;469.08;37.92;;;1.00;99.90;;;;;;5042407;28;20067;-69
2022/12/02 01:37:47;;;;;;;411.70;34.72;;;0.90;99.90;;;;;;5048296;28;20124;-68
2022/12/02 01:40:14;;;;;;;584.30;43.95;;;0.90;99.90;;;;;;5046744;28;20060;-68
2022/12/02 01:42:40;;;;;;;297.88;34.65;;;0.90;99.90;;;;;;5045654;28;20041;-69
2022/12/02 01:45:07;;;;;;;367.77;33.65;;;0.90;99.90;;;;;;5044039;28;20029;-69
2022/12/02 01:47:34;;;;;;;294.58;31.08;;;0.90;99.90;;;;;;5041629;28;20041;-67
2022/12/02 01:50:00;;;;;;;473.65;40.70;;;0.90;99.90;;;;;;5044097;28;20413;-68
2022/12/02 01:52:26;;;;;;;428.23;40.05;;;0.90;99.90;;;;;;5045691;28;20040;-68
2022/12/02 01:54:52;;;;;;;556.10;47.20;;;0.90;99.90;;;;;;5042745;28;20041;-68
2022/12/02 01:57:23;;;;;;;448.02;41.03;;;0.90;99.90;;;;;;5045175;28;20124;-69
2022/12/02 01:59:48;;;;;;;254.65;30.15;;;0.90;99.90;;;;;;5044777;28;20037;-67
2022/12/02 02:02:35;;;;;;;231.98;33.58;;;0.90;99.90;;;;;;5042209;28;20484;-68
2022/12/02 02:05:03;;;;;;;;;;;0.80;99.90;;;;;;5041570;28;20029;-69
2022/12/02 02:07:30;;;;;;;148.90;27.52;;;0.80;99.90;;;;;;5045453;28;19986;-69
2022/12/02 02:09:56;;;;;;;125.72;25.75;;;0.80;99.90;;;;;;5044986;28;20087;-69
2022/12/02 02:12:23;;;;;;;109.18;28.23;;;0.80;99.90;;;;;;5045699;28;20097;-69
2022/12/02 02:14:49;;;;;;;84.35;26.58;;;0.90;99.90;;;;;;5044683;28;20040;-68
2022/12/02 02:17:15;;;;;;;76.90;25.20;;;0.90;99.90;;;;;;5044078;28;20040;-68
2022/12/02 02:19:40;;;;;;;85.20;26.90;;;0.90;99.90;;;;;;5043435;28;20075;-70
2022/12/02 02:22:14;;;;;;;89.55;26.33;;;0.90;99.90;;;;;;5046388;28;20701;-68
2022/12/02 02:24:39;;;;;;;104.60;27.85;;;0.90;99.90;;;;;;5052267;28;20041;-69
2022/12/02 02:27:06;;;;;;;100.80;27.00;;;0.90;99.90;;;;;;5044702;28;20048;-68
2022/12/02 02:29:32;;;;;;;103.75;29.13;;;0.90;99.90;;;;;;5044195;28;20071;-67
2022/12/02 02:31:58;;;;;;;184.10;33.60;;;0.90;99.90;;;;;;5044643;28;20061;-69
2022/12/02 02:34:24;;;;;;;127.05;29.23;;;0.90;99.90;;;;;;5041865;28;20045;-68
2022/12/02 02:36:50;;;;;;;82.90;27.38;;;0.90;99.90;;;;;;5048929;28;20049;-68
2022/12/02 02:39:16;;;;;;;77.28;26.77;;;0.90;99.90;;;;;;5044196;28;20159;-68
2022/12/02 02:41:42;;;;;;;95.60;29.67;;;0.90;99.90;;;;;;5044476;28;20051;-67
2022/12/02 02:44:10;;;;;;;80.75;26.75;;;0.90;99.90;;;;;;5043275;28;20078;-69
2022/12/02 02:46:36;;;;;;;73.63;27.25;;;1.00;99.90;;;;;;5042859;28;20052;-69
2022/12/02 02:49:02;;;;;;;83.10;27.08;;;1.00;99.90;;;;;;5042491;28;20032;-68
2022/12/02 02:51:28;;;;;;;72.20;26.88;;;1.00;99.90;;;;;;5043335;28;20094;-69
2022/12/02 02:53:54;;;;;;;65.97;25.13;;;1.00;99.90;;;;;;5040842;28;20033;-68
2022/12/02 02:56:20;;;;;;;53.40;23.85;;;1.00;99.90;;;;;;5045126;28;20043;-68
2022/12/02 02:58:46;;;;;;;61.47;24.10;;;1.00;99.90;;;;;;5039513;28;20437;-67
2022/12/02 03:01:16;;;;;;;54.63;21.73;;;1.10;99.90;;;;;;5041190;28;20037;-70
2022/12/02 03:03:45;;;;;;;50.90;21.52;;;1.10;99.90;;;;;;5041897;28;20041;-68
2022/12/02 03:06:12;;;;;;;59.15;23.05;;;1.10;99.90;;;;;;5043259;28;20045;-70
2022/12/02 03:08:41;;;;;;;56.25;23.52;;;1.00;99.90;;;;;;5044949;28;20043;-69
2022/12/02 03:11:07;;;;;;;63.53;24.45;;;1.00;99.90;;;;;;5044093;28;20726;-67
2022/12/02 03:13:36;;;;;;;66.45;25.85;;;1.00;99.90;;;;;;5043441;28;20079;-69
2022/12/02 03:16:03;;;;;;;63.38;23.65;;;1.10;99.90;;;;;;5043066;28;20037;-67
2022/12/02 03:18:29;;;;;;;65.30;24.35;;;1.10;99.90;;;;;;5043905;28;20045;-69
2022/12/02 03:20:56;;;;;;;67.20;24.70;;;1.10;99.90;;;;;;5041974;28;20037;-69
2022/12/02 03:23:22;;;;;;;63.97;25.33;;;1.10;99.90;;;;;;5039485;28;20049;-69
2022/12/02 03:25:48;;;;;;;85.53;27.00;;;1.10;99.90;;;;;;5038938;28;20049;-70
2022/12/02 03:28:14;;;;;;;79.55;26.75;;;1.10;99.90;;;;;;5039218;28;20045;-68
2022/12/02 03:30:40;;;;;;;79.35;28.10;;;1.10;99.90;;;;;;5036668;28;20036;-67
2022/12/02 03:33:06;;;;;;;72.00;24.98;;;1.20;99.90;;;;;;5042144;28;20033;-68
2022/12/02 03:35:32;;;;;;;75.57;26.08;;;1.10;99.90;;;;;;5043455;28;20052;-67
2022/12/02 03:37:58;;;;;;;98.35;26.42;;;1.10;99.90;;;;;;5043188;28;20222;-67
2022/12/02 03:40:24;;;;;;;222.15;33.03;;;1.10;99.90;;;;;;5042435;28;20045;-68
2022/12/02 03:42:50;;;;;;;98.93;26.13;;;1.00;99.90;;;;;;5042583;28;20040;-67
2022/12/02 03:45:16;;;;;;;137.88;27.88;;;1.00;99.90;;;;;;5040324;28;20029;-67
2022/12/02 03:47:42;;;;;;;131.23;26.23;;;1.10;99.90;;;;;;5042196;28;20032;-68
2022/12/02 03:50:09;;;;;;;160.95;28.27;;;1.10;99.90;;;;;;5038049;28;20059;-68
2022/12/02 03:52:35;;;;;;;90.50;24.88;;;1.00;99.90;;;;;;5044636;28;20061;-68
2022/12/02 03:55:01;;;;;;;141.07;27.42;;;1.10;99.90;;;;;;5039454;28;20045;-69
2022/12/02 03:57:30;;;;;;;98.05;26.75;;;1.00;99.90;;;;;;5046512;28;20195;-69
2022/12/02 03:59:56;;;;;;;105.68;23.95;;;1.00;99.90;;;;;;5043982;28;20089;-68
2022/12/02 04:02:21;;;;;;;139.00;27.63;;;1.00;99.90;;;;;;5045574;28;20045;-67
2022/12/02 04:04:47;;;;;;;106.85;22.55;;;1.00;99.90;;;;;;5044330;28;20047;-67
2022/12/02 04:07:13;;;;;;;90.47;22.23;;;1.10;99.90;;;;;;5047367;28;20141;-68
2022/12/02 04:09:38;;;;;;;70.22;23.38;;;1.00;99.90;;;;;;5046379;28;20057;-67
2022/12/02 04:12:04;;;;;;;68.43;20.70;;;1.00;99.90;;;;;;5047322;28;20484;-68
2022/12/02 04:14:30;;;;;;;65.82;20.73;;;1.00;99.90;;;;;;5046227;28;20076;-68
2022/12/02 04:16:55;;;;;;;71.80;22.15;;;1.00;99.90;;;;;;5044097;28;20040;-69
2022/12/02 04:19:21;;;;;;;59.72;20.20;;;1.00;99.90;;;;;;5036227;28;20068;-67
2022/12/02 04:21:47;;;;;;;69.70;20.45;;;1.00;99.90;;;;;;5044982;28;20045;-67
2022/12/02 04:24:13;;;;;;;96.18;21.52;;;1.10;99.90;;;;;;5042106;28;20037;-69
2022/12/02 04:26:38;;;;;;;63.97;19.38;;;1.00;99.90;;;;;;5045682;28;20037;-67
2022/12/02 04:29:04;;;;;;;51.22;17.83;;;1.00;99.90;;;;;;5043797;28;20126;-68
2022/12/02 04:31:30;;;;;;;56.28;19.33;;;1.00;99.90;;;;;;5044746;28;20090;-68
2022/12/02 04:33:55;;;;;;;64.30;20.02;;;1.00;99.90;;;;;;5046839;28;20037;-68
2022/12/02 04:36:21;;;;;;;51.15;19.58;;;1.00;99.90;;;;;;5043715;28;20048;-68
2022/12/02 04:38:47;;;;;;;51.80;18.33;;;1.00;99.90;;;;;;5046882;28;20040;-68
2022/12/02 04:41:12;;;;;;;50.50;18.88;;;1.00;99.90;;;;;;5046674;28;20036;-68
2022/12/02 04:43:38;;;;;;;50.83;19.20;;;0.90;99.90;;;;;;5044946;28;20029;-68
2022/12/02 04:46:04;;;;;;;41.40;16.42;;;0.90;99.90;;;;;;5040826;28;20044;-68
2022/12/02 04:48:29;;;;;;;48.90;18.65;;;0.90;99.90;;;;;;5042087;28;20405;-68
2022/12/02 04:50:55;;;;;;;42.40;17.25;;;;;;;;;;5041998;28;20051;-68
2022/12/02 04:53:21;;;;;;;51.75;18.95;;;;;;;;;;5042176;28;20052;-67
2022/12/02 04:55:47;;;;;;;46.58;18.35;;;;;;;;;;5044540;28;20779;-68
2022/12/02 04:58:13;;;;;;;46.85;17.45;;;;;;;;;;5022669;23;21590;-67
2022/12/02 05:00:39;;;;;;;44.05;16.58;;;;;;;;;;4987535;28;20487;-66
2022/12/02 05:03:06;;;;;;;45.40;16.85;;;;;;;;;;4985526;28;20037;-68
2022/12/02 05:05:31;;;;;;;44.75;17.13;;;;;;;;;;4990974;28;20845;-68
2022/12/02 05:07:58;;;;;;;44.25;18.02;;;;;;;;;;4986926;28;20066;-67
2022/12/02 05:10:24;;;;;;;44.60;16.80;;;;;;;;;;4991123;28;20502;-67
2022/12/02 05:12:50;;;;;;;39.80;15.90;;;;;;;;;;4985742;28;20112;-67
2022/12/02 05:15:16;;;;;;;39.47;15.63;;;;;;;;;;4990996;28;20069;-67
2022/12/02 05:17:42;;;;;;;38.13;14.95;;;;;;;;;;4985095;28;20042;-68
2022/12/02 05:20:09;;;;;;;39.60;14.32;;;;;;;;;;4991328;28;20473;-67
2022/12/02 05:22:35;;;;;;;37.95;15.63;;;;;;;;;;4988224;28;20030;-68
2022/12/02 05:25:01;;;;;;;39.22;15.25;;;;;;;;;;4993723;28;20038;-67
2022/12/02 05:27:27;;;;;;;35.50;15.50;;;;;;;;;;4985620;28;20610;-68
2022/12/02 05:29:53;;;;;;;35.70;15.05;;;;;;;;;;4995462;28;20077;-67
2022/12/02 05:32:19;;;;;;;37.78;16.20;;;;;;;;;;4984419;28;20049;-66
2022/12/02 05:34:45;;;;;;;30.77;13.80;;;;;;;;;;4992295;28;20082;-68
2022/12/02 05:37:11;;;;;;;32.67;14.38;;;;;;;;;;4987490;28;20049;-67
2022/12/02 05:39:37;;;;;;;30.17;12.82;;;;;;;;;;4993495;28;20398;-69
2022/12/02 05:42:05;;;;;;;31.88;14.45;;;;;;;;;;4997388;28;20394;-68
2022/12/02 05:44:33;;;;;;;26.98;12.82;;;;;;;;;;4989261;28;20070;-67
2022/12/02 05:47:05;;;;;;;30.73;12.68;;;;;;;;;;4984990;28;20455;-69
2022/12/02 05:49:33;;;;;;;31.40;12.95;;;;;;;;;;4990843;28;20046;-67
2022/12/02 05:52:01;;;;;;;28.33;12.63;;;;;;;;;;4990135;28;20041;-70
2022/12/02 05:54:27;;;;;;;30.73;12.30;;;;;;;;;;4991093;28;20037;-68
2022/12/02 05:56:55;;;;;;;28.50;12.02;;;;;;;;;;4985729;28;20037;-67
2022/12/02 05:59:21;;;;;;;29.67;12.90;;;;;;;;;;4980203;28;20789;-65
2022/12/02 06:01:52;;;;;;;28.75;12.35;;;;;;;;;;4996442;28;20066;-62
2022/12/02 06:04:20;;;;;;;36.65;15.75;;;;;;;;;;4987528;28;20045;-62
2022/12/02 06:06:46;;;;;;;31.10;13.40;;;;;;;;;;4990888;28;20038;-63
2022/12/02 06:09:17;;;;;;;35.17;14.60;;;;;;;;;;4987504;28;20081;-63
2022/12/02 06:11:46;;;;;;;31.58;13.68;;;;;;;;;;4981813;28;20049;-62
2022/12/02 06:14:15;;;;;;;29.65;14.00;;;;;;;;;;4988573;28;20069;-66
2022/12/02 06:16:43;;;;;;;35.55;15.50;;;;;;;;;;4987159;28;20074;-66
2022/12/02 06:19:18;;;;;;;34.05;14.65;;;;;;;;;;4993063;28;20217;-67
2022/12/02 06:21:44;;;;;;;40.50;15.95;;;;;;;;;;4990746;28;20038;-67
2022/12/02 06:24:11;;;;;;;38.47;15.15;;;;;;;;;;4990532;28;20069;-68
2022/12/02 06:26:37;;;;;;;30.75;14.48;;;;;;;;;;4993822;28;20065;-67
2022/12/02 06:29:04;;;;;;;33.58;13.95;;;;;;;;;;4986567;28;20046;-68
2022/12/02 06:31:36;;;;;;;35.00;14.90;;;;;;;;;;4980168;28;20035;-67
2022/12/02 06:34:11;;;;;;;28.95;13.15;;;;;;;;;;4990636;28;20046;-67
2022/12/02 06:36:37;;;;;;;25.38;11.23;;;;;;;;;;4988599;28;20133;-67
2022/12/02 06:39:14;;;;;;;21.08;9.35;;;;;;;;;;4991251;28;20057;-66
2022/12/02 06:41:40;;;;;;;22.45;10.90;;;;;;;;;;4980981;28;20455;-67
2022/12/02 06:46:59;;;;;;;29.83;12.65;;;;;;;;;;4981347;28;20080;-68
2022/12/02 06:49:33;;;;;;;53.65;16.85;;;;;;;;;;4987271;28;20085;-67
2022/12/02 06:52:00;;;;;;;90.53;18.05;;;;;;;;;;4983752;28;20034;-69
2022/12/02 06:54:28;;;;;;;75.63;19.63;;;;;;;;;;4986550;28;20569;-68
2022/12/02 06:56:56;;;;;;;168.05;21.08;;;;;;;;;;4974498;28;20042;-67
2022/12/02 06:59:22;;;;;;;269.67;24.05;;;;;;;;;;4980580;28;20046;-68
2022/12/02 07:01:52;;;;;;;264.70;24.60;;;;;;;;;;4984395;28;20567;-67
2022/12/02 07:04:28;;;;;;;428.85;33.45;;;;;;;;;;4981880;28;20035;-66
2022/12/02 07:06:57;;;;;;;235.85;24.98;;;;;;;;;;4981474;28;20046;-67
2022/12/02 07:09:44;;;;;;;497.02;38.50;;;;;;;;;;4990059;28;20086;-66
2022/12/02 07:12:11;;;;;;;267.70;26.27;;;;;;;;;;4984699;28;20038;-71
2022/12/02 07:14:51;;;;;;;564.38;42.20;;;;;;;;;;4990487;28;20094;-67
2022/12/02 07:17:17;;;;;;;283.55;26.40;;;;;;;;;;4985621;28;20533;-68
2022/12/02 07:19:45;;;;;;;225.38;25.50;;;;;;;;;;4991582;28;20058;-68
2022/12/02 07:22:15;;;;;;;107.70;21.17;;;;;;;;;;4985864;28;20042;-67
2022/12/02 07:24:42;;;;;;;167.15;24.67;;;;;;;;;;4991871;28;20038;-68
2022/12/02 07:27:14;;;;;;;169.70;26.17;;;;;;;;;;4986395;28;20042;-67
2022/12/02 07:29:40;;;;;;;360.63;33.42;;;;;;;;;;4979866;28;20051;-66
2022/12/02 07:32:06;;;;;;;213.63;24.38;;;;;;;;;;4992161;28;20089;-66
2022/12/02 07:34:32;;;;;;;386.92;31.00;;;;;;;;;;4973739;28;20045;-69
2022/12/02 07:36:58;;;;;;;432.02;30.45;;;;;;;;;;4972347;28;20053;-70
2022/12/02 07:39:24;;;;;;;470.38;31.70;;;;;;;;;;4989023;28;20046;-64
2022/12/02 07:41:50;;;;;;;473.25;34.92;;;;;;;;;;4997594;28;20034;-64
2022/12/02 07:44:16;;;;;;;495.75;32.90;;;;;;;;;;4989605;28;20534;-67
2022/12/02 07:46:45;;;;;;;404.70;28.50;;;;;;;;;;4990074;28;20043;-69
2022/12/02 07:49:11;;;;;;;457.35;31.73;;;;;;;;;;4997178;28;20057;-68
2022/12/02 07:51:37;;;;;;;462.85;33.85;;;;;;;;;;5001619;28;20475;-67
2022/12/02 07:54:03;;;;;;;338.92;29.55;;;;;;;;;;4996430;28;20041;-65
2022/12/02 07:56:29;;;;;;;362.02;29.50;;;;;;;;;;4991876;28;20536;-65
2022/12/02 07:58:55;;;;;;;244.93;27.20;;;;;;;;;;4994182;28;20056;-66
2022/12/02 08:01:21;;;;;;;50.28;20.75;;;;;;;;;;4982386;28;20370;-67
2022/12/02 08:03:47;;;;;;;53.72;20.85;;;;;;;;;;5000627;28;20037;-65
2022/12/02 08:06:14;;;;;;;50.20;21.42;;;;;;;;;;4986614;28;20070;-67
2022/12/02 08:08:40;;;;;;;52.35;21.63;;;;;;;;;;4974279;28;20531;-65
2022/12/02 08:11:06;;;;;;;53.80;22.45;;;;;;;;;;4994094;28;20088;-66
2022/12/02 08:13:32;;;;;;;51.90;22.63;;;;;;;;;;4978450;28;20034;-67
2022/12/02 08:15:58;;;;;;;58.03;22.80;;;;;;;;;;4990898;28;20056;-68
2022/12/02 08:18:24;;;;;;;53.53;21.08;;;;;;;;;;4976791;28;20128;-67
2022/12/02 08:20:50;;;;;;;51.83;21.77;;;;;;;;;;4992966;28;20030;-67
2022/12/02 08:23:16;;;;;;;54.05;22.10;;;;;;;;;;4995713;28;20045;-67
2022/12/02 08:25:42;;;;;;;50.85;21.67;;;;;;;;;;4993573;28;20050;-67
2022/12/02 08:28:09;;;;;;;44.50;20.88;;;;;;;;;;4955998;28;20078;-68
2022/12/02 08:30:35;;;;;;;51.00;22.05;;;;;;;;;;4973302;28;20097;-67
2022/12/02 08:33:01;;;;;;;47.22;21.90;;;;;;;;;;4986073;28;20030;-69
2022/12/02 08:35:27;;;;;;;46.55;21.40;;;;;;;;;;4990292;28;20093;-68
2022/12/02 08:37:53;;;;;;;45.70;21.08;;;;;;;;;;4984944;28;20042;-67
2022/12/02 08:40:19;;;;;;;47.33;21.42;;;;;;;;;;4988448;28;20512;-68
2022/12/02 08:42:48;;;;;;;50.30;21.33;;;;;;;;;;4987510;28;20042;-66
2022/12/02 08:45:15;;;;;;;46.83;20.55;;;;;;;;;;4991656;28;20034;-67
2022/12/02 08:47:41;;;;;;;44.40;20.27;;;;;;;;;;4985336;28;20962;-67
2022/12/02 08:50:07;;;;;;;49.80;20.77;;;;;;;;;;4989339;28;20070;-70
2022/12/02 08:53:35;;;;;;;43.35;19.45;;;;;;;;;;5075745;27;20408;-69
2022/12/02 08:56:01;;;;;;;38.30;18.30;;;;;;;;;;5040944;28;20077;-69
2022/12/02 08:58:27;;;;;;;39.15;18.13;;;;;;;;;;5037483;28;20134;-69
2022/12/02 09:00:53;;;;;;;39.67;18.60;;;;;;;;;;5039659;28;20037;-68
2022/12/02 09:03:19;;;;;;;44.47;20.70;;;;;;;;;;5039771;28;20124;-69
2022/12/02 09:05:45;;;;;;;40.15;19.75;;;;;;;;;;5041614;28;20045;-68
2022/12/02 09:08:11;;;;;;;40.60;20.00;;;;;;;;;;5040298;28;20436;-70
2022/12/02 09:10:38;;;;;;;41.97;19.92;;;;;;;;;;5041548;28;20628;-67
2022/12/02 09:13:04;;;;;;;40.83;20.17;;;;;;;;;;5039690;28;20107;-71
2022/12/02 09:15:30;;;;;;;39.97;19.50;;;;;;;;;;5039807;28;20072;-68
2022/12/02 09:17:56;;;;;;;45.05;21.15;;;;;;;;;;5040443;28;20041;-68
2022/12/02 09:20:22;;;;;;;41.35;19.40;;;;;;;;;;5040333;28;20045;-68
2022/12/02 09:22:48;;;;;;;42.45;20.25;;;;;;;;;;5040936;28;20107;-68
2022/12/02 09:25:15;;;;;;;41.75;18.90;;;;;;;;;;5036671;28;20355;-70
2022/12/02 09:27:41;;;;;;;39.83;19.33;;;;;;;;;;5024562;28;20037;-68
2022/12/02 09:30:08;;;;;;;45.30;19.85;;;;;;;;;;5039348;28;21325;-68
2022/12/02 09:36:28;;;;;;;41.03;19.45;;;0.40;99.90;;;;;;5122155;27;20314;-67
2022/12/02 09:38:54;;;;;;;44.47;21.10;;;0.30;99.90;;;;;;5120964;28;20061;-69
2022/12/02 09:41:20;;;;;;;43.40;21.13;;;0.30;99.90;;;;;;5123005;27;20122;-69
2022/12/02 09:43:46;;;;;;;47.47;22.85;;;0.20;99.90;;;;;;5116252;27;20043;-71
2022/12/02 09:46:11;;;;;;;47.60;22.77;;;0.20;99.90;;;;;;5119906;27;20043;-71
2022/12/02 09:48:37;;;;;;;44.95;21.33;;;0.20;99.90;;;;;;5120446;27;20380;-67
2022/12/02 09:51:03;;;;;;;47.58;23.65;;;0.10;99.90;;;;;;5121421;27;20035;-70
2022/12/02 09:53:37;;;;;;;49.50;23.90;;;0.20;99.90;;;;;;5113782;28;21205;-69
2022/12/02 09:56:13;;;;;;;51.40;23.17;;;0.20;99.90;;;;;;5122640;27;20062;-69
2022/12/02 09:58:39;;;;;;;50.08;23.20;;;0.20;99.90;;;;;;5106556;28;20035;-67
2022/12/02 10:01:09;;;;;;;51.75;23.52;;;0.30;99.90;;;;;;5100515;27;20048;-69
2022/12/02 10:03:35;;;;;;;48.70;22.27;;;0.40;99.90;;;;;;5078787;28;20523;-69
2022/12/02 10:06:06;;;;;;;51.42;23.55;;;0.40;99.90;;;;;;5077546;28;20040;-69
2022/12/02 10:08:32;;;;;;;47.45;22.95;;;0.40;99.90;;;;;;5079354;28;20050;-69
2022/12/02 10:10:58;;;;;;;45.22;21.85;;;0.30;99.90;;;;;;5081049;28;20036;-68
2022/12/02 10:13:25;;;;;;;43.47;20.90;;;0.30;99.90;;;;;;5075197;28;20074;-68
2022/12/02 10:15:52;;;;;;;48.67;20.73;;;0.20;99.90;;;;;;5079597;28;20059;-69
2022/12/02 10:18:21;;;;;;;44.42;18.83;;;0.30;99.90;;;;;;5079156;28;20135;-67
2022/12/02 10:20:49;;;;;;;40.75;20.25;;;0.30;99.90;;;;;;5080787;28;20112;-66
2022/12/02 10:23:25;;;;;;;35.90;18.38;;;0.20;99.90;;;;;;5076908;28;20034;-69
2022/12/02 10:25:54;;;;;;;36.40;17.90;;;0.20;99.90;;;;;;5073335;28;20070;-69
2022/12/02 10:28:24;;;;;;;41.88;19.23;;;0.40;99.90;;;;;;5069952;28;20040;-68
2022/12/02 10:31:11;;;;;;;35.63;17.52;;;0.40;99.90;;;;;;5088305;27;20071;-68
2022/12/02 10:33:52;;;;;;;39.10;18.63;;;0.30;99.90;;;;;;5095282;28;20044;-68
2022/12/02 10:36:34;;;;;;;39.30;19.10;;;0.20;99.90;;;;;;5106545;28;20049;-66
2022/12/02 10:39:29;;;;;;;36.88;19.00;;;0.30;99.90;;;;;;5104595;28;20133;-68
2022/12/02 10:42:03;;;;;;;35.20;17.80;;;0.40;99.90;;;;;;5088179;28;20070;-67
2022/12/02 10:44:44;;;;;;;38.53;19.50;;;0.40;99.90;;;;;;5088990;28;20036;-70
2022/12/02 10:47:22;;;;;;;34.70;17.92;;;0.40;99.90;;;;;;5077204;28;20181;-68
2022/12/02 10:49:55;;;;;;;32.33;16.73;;;0.50;99.90;;;;;;5081239;28;20052;-71
2022/12/02 10:52:36;;;;;;;31.98;15.93;;;0.50;99.90;;;;;;5083646;28;20115;-68
2022/12/02 10:55:04;;;;;;;35.53;17.73;;;0.50;99.90;;;;;;5095538;28;20036;-66
2022/12/02 10:57:34;;;;;;;29.50;17.38;;;0.50;99.90;;;;;;5082732;28;20102;-67
2022/12/02 11:00:15;;;;;;;35.60;17.90;;;0.60;99.90;;;;;;5078067;28;20500;-68
2022/12/02 11:02:48;;;;;;;35.92;18.77;;;0.50;99.90;;;;;;5077589;28;20600;-68
2022/12/02 11:05:21;;;;;;;36.53;19.02;;;0.50;99.90;;;;;;5074892;28;20519;-68
2022/12/02 11:07:58;;;;;;;37.25;18.42;;;0.40;99.90;;;;;;5077008;28;20667;-68
2022/12/02 11:10:45;;;;;;;36.17;17.85;;;0.40;99.90;;;;;;5077709;28;20093;-68
2022/12/02 11:13:11;;;;;;;35.03;17.52;;;0.40;99.90;;;;;;5076567;28;20085;-67
2022/12/02 11:15:43;;;;;;;33.28;17.65;;;0.40;99.90;;;;;;5096951;28;20055;-67
2022/12/02 11:18:28;;;;;;;32.97;17.13;;;0.20;99.90;;;;;;5095174;28;20089;-67
2022/12/02 11:21:26;;;;;;;39.70;19.05;;;0.20;99.90;;;;;;5079299;28;20123;-68
2022/12/02 11:24:25;;;;;;;34.72;18.27;;;0.20;99.90;;;;;;5076692;28;20044;-67
2022/12/02 11:27:02;;;;;;;30.73;16.50;;;0.30;99.90;;;;;;5085146;28;20048;-67
2022/12/02 11:29:28;;;;;;;33.35;17.25;;;0.30;99.90;;;;;;5083946;28;20036;-69
2022/12/02 11:32:25;;;;;;;36.85;18.30;;;0.20;99.90;;;;;;5070039;28;20590;-67
2022/12/02 11:34:59;;;;;;;34.90;17.15;;;0.10;99.90;;;;;;5055452;28;20037;-67
2022/12/02 11:37:34;;;;;;;34.55;17.40;;;0.10;99.90;;;;;;5045458;28;20044;-67
2022/12/02 11:40:26;;;;;;;36.15;18.38;;;0.10;99.90;;;;;;5056165;28;20068;-67
2022/12/02 11:43:31;;;;;;;34.10;17.45;;;0.10;99.90;;;;;;5041457;28;20040;-67
2022/12/02 11:45:58;;;;;;;33.45;17.20;;;0.20;99.90;;;;;;5056364;28;20083;-67
2022/12/02 11:48:24;;;;;;;31.55;15.88;;;0.10;99.90;;;;;;5050133;28;20052;-67
2022/12/02 11:50:49;;;;;;;38.17;20.02;;;0.10;99.90;;;;;;5050546;28;20071;-68
2022/12/02 11:53:18;;;;;;;36.97;18.42;;;0.10;99.90;;;;;;5051068;28;20036;-68
2022/12/02 11:55:50;;;;;;;36.30;18.10;;;0.10;99.90;;;;;;5053550;28;20100;-67
2022/12/02 11:58:27;;;;;;;34.80;17.35;;;0.20;99.90;;;;;;5056896;28;20041;-68
2022/12/02 12:01:12;;;;;;;31.55;16.52;;;0.20;99.90;;;;;;5051781;28;20091;-69
2022/12/02 12:03:56;;;;;;;30.33;16.35;;;0.20;99.90;;;;;;5060070;28;20459;-69
2022/12/02 12:06:24;;;;;;;28.67;15.82;;;0.10;99.90;;;;;;5062116;28;20045;-70
2022/12/02 12:08:53;;;;;;;29.15;14.20;;;0.20;99.90;;;;;;5058777;28;20044;-68
2022/12/02 12:11:36;;;;;;;28.05;15.68;;;0.20;99.90;;;;;;5061667;28;20036;-67
2022/12/02 12:14:10;;;;;;;30.30;15.45;;;0.20;99.90;;;;;;5059062;28;20041;-69
2022/12/02 12:16:42;;;;;;;27.60;15.00;;;0.20;99.90;;;;;;5065980;28;20567;-67
2022/12/02 12:19:10;;;;;;;31.73;16.23;;;0.20;99.90;;;;;;5055812;28;20101;-68
2022/12/02 12:21:46;;;;;;;33.72;15.90;;;0.30;99.90;;;;;;5059782;28;20063;-69
2022/12/02 12:24:17;;;;;;;26.90;14.67;;;0.30;99.90;;;;;;5058225;28;20075;-68
2022/12/02 12:26:47;;;;;;;27.13;14.32;;;0.30;99.90;;;;;;5062327;28;20041;-67
2022/12/02 12:29:13;;;;;;;30.67;15.93;;;0.20;99.90;;;;;;5062417;28;20044;-68
2022/12/02 12:31:39;;;;;;;27.92;14.90;;;0.20;99.90;;;;;;5061945;28;20085;-70
2022/12/02 12:34:05;;;;;;;29.20;14.75;;;0.20;99.90;;;;;;5059682;28;20040;-68
2022/12/02 12:36:31;;;;;;;27.75;14.65;;;0.10;99.90;;;;;;5062915;28;20102;-67
2022/12/02 12:38:57;;;;;;;24.90;13.63;;;0.10;99.90;;;;;;5058752;28;20037;-68
2022/12/02 12:41:22;;;;;;;28.83;14.75;;;0.10;99.90;;;;;;5063903;28;20063;-68
2022/12/02 12:43:49;;;;;;;27.40;14.55;;;0.10;99.90;;;;;;5061453;28;20033;-69
2022/12/02 12:46:15;;;;;;;27.13;15.25;;;0.10;99.90;;;;;;5063983;28;20045;-69
2022/12/02 12:48:41;;;;;;;28.15;15.10;;;0.10;99.90;;;;;;5061026;28;20452;-69
2022/12/02 12:51:07;;;;;;;26.10;15.05;;;0.10;99.90;;;;;;5059177;28;20052;-68
2022/12/02 12:53:36;;;;;;;29.45;15.23;;;0.10;99.90;;;;;;5057237;28;20040;-67
2022/12/02 12:56:02;;;;;;;26.73;14.10;;;0.00;99.90;;;;;;5061504;28;20047;-67
2022/12/02 12:58:28;;;;;;;26.75;14.40;;;0.00;99.90;;;;;;5061300;28;20411;-70
2022/12/02 13:00:54;;;;;;;29.92;15.25;;;0.00;99.90;;;;;;5062042;28;20058;-67
2022/12/02 13:03:19;;;;;;;26.88;14.30;;;0.10;99.90;;;;;;5054104;28;20029;-67
2022/12/02 13:05:45;;;;;;;31.23;16.50;;;0.00;99.90;;;;;;5064971;28;20043;-67
2022/12/02 13:08:11;;;;;;;26.30;14.63;;;0.00;99.90;;;;;;5060462;28;20045;-68
2022/12/02 13:10:37;;;;;;;30.45;15.10;;;0.00;99.90;;;;;;5062254;28;20117;-69
2022/12/02 13:13:03;;;;;;;32.42;16.17;;;0.00;99.90;;;;;;5055148;28;20036;-67
2022/12/02 13:15:29;;;;;;;29.50;15.63;;;-0.10;99.90;;;;;;5060298;28;20105;-68
2022/12/02 13:17:54;;;;;;;27.60;14.95;;;-0.10;99.90;;;;;;5061334;28;20615;-68
2022/12/02 13:20:20;;;;;;;28.85;15.35;;;-0.10;99.90;;;;;;5047594;28;20508;-68
2022/12/02 13:22:46;;;;;;;26.60;14.63;;;-0.10;99.90;;;;;;5057594;28;20107;-69
2022/12/02 13:25:13;;;;;;;28.17;14.25;;;-0.10;99.90;;;;;;5059364;28;20543;-70